Terminal Aerodrome Forecast
Issued by NWS Duluth, MN

Home | Current Version | Previous Version | Text Only | Print | Product List | Glossary On
Versions: 1 2 3 4 5 6 7 8 9 10 11 12 13 14 15 16 17 18 19 20 21 22 23 24 25 26
000
FTUS43 KDLH 252342
TAFDLH
TAF
KDLH 252342Z 2600/2624 14005KT P6SM OVC020
      TEMPO 2603/2606 4SM -TSRA BR SCT015 BKN035CB
     FM260600 23005KT P6SM -SHRA BKN035 OVC050
     FM260800 29006KT 4SM BR BKN018
     FM261300 31006KT P6SM SCT080=

USA.gov is the U.S. government's official web portal to all federal, state and local government web resources and services.